createdAt,value
2022-08-19T00:01:38.379Z,15.20
2022-08-19T00:04:07.998Z,17.58
2022-08-19T00:06:35.342Z,17.13
2022-08-19T00:09:01.925Z,16.60
2022-08-19T00:11:28.848Z,16.98
2022-08-19T00:13:56.407Z,18.58
2022-08-19T00:16:25.758Z,16.80
2022-08-19T00:18:54.366Z,18.20
2022-08-19T00:21:20.764Z,17.38
2022-08-19T00:23:47.192Z,17.67
2022-08-19T00:26:13.581Z,17.02
2022-08-19T00:28:40.166Z,16.83
2022-08-19T00:31:07.941Z,17.08
2022-08-19T00:33:34.818Z,17.65
2022-08-19T00:36:02.111Z,16.45
2022-08-19T00:38:37.849Z,16.45
2022-08-19T00:41:06.069Z,17.08
2022-08-19T00:43:32.837Z,16.90
2022-08-19T00:45:59.482Z,16.98
2022-08-19T00:48:26.086Z,17.23
2022-08-19T00:50:54.061Z,18.42
2022-08-19T00:53:22.626Z,18.35
2022-08-19T00:55:51.427Z,17.83
2022-08-19T00:58:19.926Z,18.10
2022-08-19T01:00:47.134Z,18.35
2022-08-19T01:03:15.152Z,18.30
2022-08-19T01:05:43.373Z,19.48
2022-08-19T01:08:10.447Z,20.15
2022-08-19T01:10:40.221Z,19.70
2022-08-19T01:13:06.767Z,20.40
2022-08-19T01:15:35.106Z,20.95
2022-08-19T01:18:05.149Z,20.13
2022-08-19T01:20:31.694Z,21.48
2022-08-19T01:22:59.094Z,23.20
2022-08-19T01:25:34.425Z,23.83
2022-08-19T01:28:03.032Z,22.40
2022-08-19T01:30:37.209Z,22.60
2022-08-19T01:33:06.467Z,22.33
2022-08-19T01:35:33.204Z,22.38
2022-08-19T01:38:02.093Z,23.70
2022-08-19T01:40:32.793Z,25.75
2022-08-19T01:42:59.798Z,22.75
2022-08-19T01:45:27.026Z,23.25
2022-08-19T01:48:01.512Z,22.55
2022-08-19T01:50:29.100Z,20.83
2022-08-19T01:53:02.338Z,25.17
2022-08-19T01:55:32.645Z,18.63
2022-08-19T01:58:00.751Z,17.85
2022-08-19T02:00:28.858Z,18.17
2022-08-19T02:02:55.367Z,18.20
2022-08-19T02:05:22.494Z,18.50
2022-08-19T02:07:48.946Z,17.77
2022-08-19T02:10:17.172Z,18.77
2022-08-19T02:12:43.813Z,17.83
2022-08-19T02:15:10.842Z,17.55
2022-08-19T02:17:37.271Z,19.85
2022-08-19T02:20:07.838Z,20.20
2022-08-19T02:22:34.404Z,20.52
2022-08-19T02:25:00.900Z,20.48
2022-08-19T02:27:27.543Z,18.80
2022-08-19T02:29:54.177Z,18.27
2022-08-19T02:32:21.006Z,17.83
2022-08-19T02:34:47.802Z,16.02
2022-08-19T02:37:37.920Z,16.17
2022-08-19T02:40:04.647Z,15.07
2022-08-19T02:42:39.147Z,16.33
2022-08-19T02:45:06.528Z,17.08
2022-08-19T02:47:32.937Z,18.38
2022-08-19T02:49:59.398Z,17.58
2022-08-19T02:52:26.482Z,18.88
2022-08-19T02:54:52.901Z,18.70
2022-08-19T02:57:23.085Z,19.95
2022-08-19T02:59:49.540Z,19.25
2022-08-19T03:02:16.487Z,16.00
2022-08-19T03:04:43.158Z,14.52
2022-08-19T03:07:11.249Z,14.38
2022-08-19T03:09:38.372Z,13.70
2022-08-19T03:12:05.108Z,13.52
2022-08-19T03:14:32.045Z,12.73
2022-08-19T03:16:58.594Z,13.20
2022-08-19T03:19:25.009Z,13.30
2022-08-19T03:21:52.538Z,13.52
2022-08-19T03:24:19.758Z,12.50
2022-08-19T03:26:49.829Z,12.07
2022-08-19T03:29:18.254Z,11.35
2022-08-19T03:31:56.948Z,12.30
2022-08-19T03:34:27.430Z,12.48
2022-08-19T03:36:55.420Z,11.75
2022-08-19T03:39:22.148Z,11.98
2022-08-19T03:42:32.824Z,12.77
2022-08-19T03:44:38.741Z,11.65
2022-08-19T03:47:06.297Z,11.93
2022-08-19T03:49:34.486Z,11.02
2022-08-19T03:52:05.982Z,11.48
2022-08-19T03:54:35.201Z,13.38
2022-08-19T03:57:01.591Z,12.45
2022-08-19T03:59:30.780Z,13.38
2022-08-19T04:01:58.295Z,12.65
2022-08-19T04:04:24.977Z,14.18
2022-08-19T04:09:22.357Z,12.88
2022-08-19T04:11:50.392Z,14.20
2022-08-19T04:14:19.409Z,14.75
2022-08-19T04:16:47.261Z,14.88
2022-08-19T04:19:14.550Z,14.02
2022-08-19T04:21:41.352Z,13.02
2022-08-19T04:24:08.158Z,14.52
2022-08-19T04:26:35.649Z,14.25
2022-08-19T04:29:04.392Z,13.18
2022-08-19T04:31:32.106Z,12.25
2022-08-19T04:33:59.322Z,11.43
2022-08-19T04:36:27.997Z,11.32
2022-08-19T04:38:57.447Z,11.20
2022-08-19T04:41:42.171Z,11.18
2022-08-19T04:44:08.663Z,11.50
2022-08-19T04:46:40.304Z,11.27
2022-08-19T04:49:18.636Z,10.73
2022-08-19T04:51:46.522Z,11.90
2022-08-19T04:54:13.557Z,10.88
2022-08-19T04:56:41.109Z,12.68
2022-08-19T04:59:09.466Z,10.73
2022-08-19T05:01:37.484Z,11.38
2022-08-19T05:04:05.642Z,11.45
2022-08-19T05:06:33.986Z,10.60
2022-08-19T05:09:04.546Z,10.15
2022-08-19T05:11:34.480Z,10.23
2022-08-19T05:14:00.867Z,9.77
2022-08-19T05:16:28.032Z,10.68
2022-08-19T05:19:13.234Z,11.75
2022-08-19T05:21:59.489Z,10.07
2022-08-19T05:24:26.361Z,10.07
2022-08-19T05:26:57.561Z,9.07
2022-08-19T05:29:25.053Z,9.75
2022-08-19T05:31:54.964Z,9.57
2022-08-19T05:34:22.837Z,9.27
2022-08-19T05:36:50.111Z,9.23
2022-08-19T05:39:18.622Z,11.55
2022-08-19T05:41:45.883Z,10.65
2022-08-19T05:44:12.393Z,10.00
2022-08-19T05:46:40.066Z,9.50
2022-08-19T05:49:07.256Z,9.05
2022-08-19T05:51:35.109Z,9.88
2022-08-19T05:54:02.280Z,9.13
2022-08-19T05:56:30.145Z,9.35
2022-08-19T05:58:56.571Z,10.13
2022-08-19T06:01:25.739Z,10.48
2022-08-19T06:03:52.363Z,9.63
2022-08-19T06:06:19.232Z,10.00
2022-08-19T06:08:51.748Z,9.75
2022-08-19T06:11:20.233Z,9.43
2022-08-19T06:13:51.489Z,9.75
2022-08-19T06:16:23.105Z,9.80
2022-08-19T06:18:52.402Z,10.07
2022-08-19T06:21:23.411Z,9.45
2022-08-19T06:23:51.364Z,9.93
2022-08-19T06:26:21.189Z,9.20
2022-08-19T06:28:48.421Z,10.68
2022-08-19T06:31:15.494Z,9.07
2022-08-19T06:33:42.417Z,10.23
2022-08-19T06:36:16.541Z,8.98
2022-08-19T06:38:43.034Z,10.05
2022-08-19T06:41:12.331Z,8.52
2022-08-19T06:43:42.314Z,8.90
2022-08-19T06:46:13.014Z,9.15
2022-08-19T06:48:45.881Z,9.15
2022-08-19T06:51:12.874Z,8.65
2022-08-19T06:53:40.521Z,9.23
2022-08-19T06:56:07.157Z,8.73
2022-08-19T06:58:33.544Z,8.82
2022-08-19T07:01:05.582Z,8.18
2022-08-19T07:03:36.029Z,8.15
2022-08-19T07:06:41.235Z,7.78
2022-08-19T07:09:04.133Z,7.70
2022-08-19T07:11:31.834Z,8.80
2022-08-19T07:14:01.358Z,9.77
2022-08-19T07:16:29.471Z,9.80
2022-08-19T07:18:57.607Z,10.20
2022-08-19T07:21:29.636Z,9.75
2022-08-19T07:23:56.974Z,10.35
2022-08-19T07:26:28.289Z,9.45
2022-08-19T07:28:55.420Z,10.27
2022-08-19T07:31:24.308Z,9.95
2022-08-19T07:33:51.843Z,11.07
2022-08-19T07:36:22.454Z,11.30
2022-08-19T07:38:52.474Z,11.23
2022-08-19T07:41:20.506Z,11.32
2022-08-19T07:43:47.914Z,10.10
2022-08-19T07:46:14.550Z,9.80
2022-08-19T07:48:42.383Z,10.90
2022-08-19T07:51:09.761Z,11.98
2022-08-19T07:53:39.914Z,12.05
2022-08-19T07:56:06.586Z,12.32
2022-08-19T07:58:34.409Z,12.32
2022-08-19T08:01:01.034Z,11.63
2022-08-19T08:03:47.344Z,12.10
2022-08-19T08:06:33.860Z,11.70
2022-08-19T08:09:12.255Z,12.02
2022-08-19T08:11:39.730Z,11.88
2022-08-19T08:14:06.878Z,12.30
2022-08-19T08:16:53.827Z,11.90
2022-08-19T08:19:25.637Z,11.65
2022-08-19T08:21:53.119Z,11.98
2022-08-19T08:24:19.539Z,13.63
2022-08-19T08:26:46.799Z,12.55
2022-08-19T08:29:20.477Z,12.25
2022-08-19T08:31:48.250Z,12.07
2022-08-19T08:34:19.846Z,12.10
2022-08-19T08:36:46.862Z,12.95
2022-08-19T08:39:14.617Z,14.15
2022-08-19T08:41:45.447Z,13.15
2022-08-19T08:46:47.100Z,12.93
2022-08-19T08:49:22.623Z,13.57
2022-08-19T08:51:59.787Z,13.23
2022-08-19T08:54:29.626Z,13.30
2022-08-19T08:56:57.459Z,12.85
2022-08-19T08:59:28.110Z,12.80
2022-08-19T09:01:54.830Z,13.18
2022-08-19T09:04:21.643Z,11.63
2022-08-19T09:07:18.418Z,11.95
2022-08-19T09:12:44.810Z,11.43
2022-08-19T09:15:14.277Z,12.60
2022-08-19T09:17:40.742Z,12.77
2022-08-19T09:20:14.436Z,12.00
2022-08-19T09:22:41.843Z,12.10
2022-08-19T09:25:09.674Z,12.40
2022-08-19T09:27:42.407Z,12.43
2022-08-19T09:30:12.158Z,12.23
2022-08-19T09:32:43.402Z,11.98
2022-08-19T09:35:10.093Z,12.13
2022-08-19T09:37:36.621Z,12.07
2022-08-19T09:40:03.728Z,11.98
2022-08-19T09:42:35.334Z,11.60
2022-08-19T09:45:02.144Z,11.95
2022-08-19T09:47:31.663Z,10.40
2022-08-19T09:49:58.514Z,12.00
2022-08-19T09:52:32.847Z,11.90
2022-08-19T09:54:59.519Z,10.82
2022-08-19T09:57:25.922Z,10.88
2022-08-19T09:59:52.321Z,10.93
2022-08-19T10:02:22.254Z,11.05
2022-08-19T10:05:07.479Z,11.07
2022-08-19T10:07:36.365Z,11.05
2022-08-19T10:10:07.670Z,11.30
2022-08-19T10:12:35.319Z,10.35
2022-08-19T10:15:02.468Z,11.23
2022-08-19T10:17:31.613Z,10.80
2022-08-19T10:20:00.302Z,11.80
2022-08-19T10:22:28.185Z,11.45
2022-08-19T10:24:54.662Z,11.93
2022-08-19T10:27:21.127Z,12.02
2022-08-19T10:29:48.920Z,11.73
2022-08-19T10:32:15.471Z,11.68
2022-08-19T10:34:48.250Z,13.35
2022-08-19T10:37:15.713Z,12.00
2022-08-19T10:39:49.998Z,11.90
2022-08-19T10:42:17.887Z,12.60
2022-08-19T10:44:44.366Z,11.88
2022-08-19T10:47:17.481Z,11.85
2022-08-19T10:52:38.943Z,12.02
2022-08-19T10:55:25.123Z,11.18
2022-08-19T10:58:03.196Z,11.88
2022-08-19T11:00:31.937Z,11.57
2022-08-19T11:02:58.567Z,12.00
2022-08-19T11:05:28.004Z,12.07
2022-08-19T11:07:54.452Z,11.93
2022-08-19T11:10:22.113Z,12.20
2022-08-19T11:12:49.364Z,10.95
2022-08-19T11:15:15.892Z,11.55
2022-08-19T11:17:44.195Z,10.63
2022-08-19T11:20:14.696Z,11.10
2022-08-19T11:22:42.109Z,10.75
2022-08-19T11:25:09.776Z,10.63
2022-08-19T11:27:38.915Z,10.65
2022-08-19T11:30:08.729Z,10.50
2022-08-19T11:32:39.566Z,11.45
2022-08-19T11:35:06.255Z,10.70
2022-08-19T11:37:33.617Z,10.60
2022-08-19T11:40:00.925Z,11.48
2022-08-19T11:42:46.021Z,10.55
2022-08-19T11:45:13.513Z,11.93
2022-08-19T11:47:40.107Z,11.07
2022-08-19T11:50:06.863Z,10.75
2022-08-19T11:52:33.282Z,11.15
2022-08-19T11:54:59.753Z,11.30
2022-08-19T11:57:26.196Z,11.10
2022-08-19T11:59:53.675Z,12.25
2022-08-19T12:02:20.178Z,10.90
2022-08-19T12:04:46.595Z,11.25
2022-08-19T12:07:13.037Z,12.00
2022-08-19T12:09:42.187Z,11.27
2022-08-19T12:12:09.777Z,11.93
2022-08-19T12:14:36.436Z,10.73
2022-08-19T12:17:05.220Z,11.38
2022-08-19T12:19:31.690Z,11.18
2022-08-19T12:22:06.405Z,10.65
2022-08-19T12:24:35.670Z,11.07
2022-08-19T12:27:02.992Z,10.73
2022-08-19T12:29:30.548Z,12.50
2022-08-19T12:32:04.118Z,12.10
2022-08-19T12:34:32.204Z,11.50
2022-08-19T12:37:01.611Z,11.23
2022-08-19T12:39:28.201Z,11.60
2022-08-19T12:41:55.244Z,12.07
2022-08-19T12:44:32.132Z,10.75
2022-08-19T12:47:01.470Z,11.73
2022-08-19T12:49:51.887Z,11.88
2022-08-19T12:52:22.981Z,11.32
2022-08-19T12:54:54.044Z,11.07
2022-08-19T12:57:21.401Z,12.55
2022-08-19T12:59:54.264Z,11.40
2022-08-19T13:02:21.081Z,12.25
2022-08-19T13:04:47.586Z,12.07
2022-08-19T13:07:13.954Z,12.85
2022-08-19T13:09:43.404Z,12.50
2022-08-19T13:12:13.844Z,11.95
2022-08-19T13:17:07.827Z,12.90
2022-08-19T13:19:34.222Z,11.88
2022-08-19T13:22:00.736Z,12.82
2022-08-19T13:24:31.406Z,12.35
2022-08-19T13:27:09.130Z,12.75
2022-08-19T13:29:54.114Z,12.35
2022-08-19T13:32:38.894Z,12.20
2022-08-19T13:35:08.948Z,10.75
2022-08-19T13:37:44.625Z,10.50
2022-08-19T13:40:13.875Z,11.38
2022-08-19T13:42:41.076Z,11.25
2022-08-19T13:45:07.752Z,11.57
2022-08-19T13:47:43.595Z,11.13
2022-08-19T13:50:11.938Z,10.70
2022-08-19T13:52:39.269Z,11.15
2022-08-19T13:55:06.401Z,11.38
2022-08-19T13:57:32.896Z,10.90
2022-08-19T14:00:02.070Z,10.75
2022-08-19T14:02:28.444Z,10.93
2022-08-19T14:04:54.904Z,11.18
2022-08-19T14:07:24.418Z,10.23
2022-08-19T14:09:51.425Z,10.80
2022-08-19T14:12:28.580Z,10.23
2022-08-19T14:14:55.668Z,11.50
2022-08-19T14:17:22.525Z,10.73
2022-08-19T14:19:49.047Z,11.45
2022-08-19T14:22:15.422Z,11.20
2022-08-19T14:24:48.916Z,11.55
2022-08-19T14:27:15.750Z,11.23
2022-08-19T14:29:42.346Z,10.70
2022-08-19T14:32:08.774Z,11.02
2022-08-19T14:34:39.469Z,11.07
2022-08-19T14:37:06.983Z,11.35
2022-08-19T14:39:33.393Z,10.43
2022-08-19T14:42:00.106Z,11.40
2022-08-19T14:44:27.135Z,11.20
2022-08-19T14:46:54.258Z,9.65
2022-08-19T14:49:21.033Z,11.13
2022-08-19T14:51:58.418Z,10.65
2022-08-19T14:54:27.898Z,11.10
2022-08-19T14:56:56.866Z,10.88
2022-08-19T14:59:23.226Z,10.55
2022-08-19T15:01:49.654Z,9.95
2022-08-19T15:04:16.069Z,10.98
2022-08-19T15:06:43.280Z,10.77
2022-08-19T15:09:10.069Z,10.52
2022-08-19T15:11:39.648Z,10.68
2022-08-19T15:14:10.152Z,10.95
2022-08-19T15:16:36.694Z,11.68
2022-08-19T15:19:03.130Z,11.73
2022-08-19T15:21:30.257Z,10.43
2022-08-19T15:23:57.575Z,11.00
2022-08-19T15:26:24.172Z,11.38
2022-08-19T15:28:50.627Z,11.57
2022-08-19T15:31:28.577Z,10.60
2022-08-19T15:33:58.246Z,12.00
2022-08-19T15:36:26.260Z,11.45
2022-08-19T15:38:53.249Z,11.65
2022-08-19T15:41:23.975Z,12.02
2022-08-19T15:44:04.621Z,12.02
2022-08-19T15:49:00.338Z,11.82
2022-08-19T15:51:27.935Z,11.38
2022-08-19T15:53:55.218Z,11.95
2022-08-19T15:56:25.541Z,11.55
2022-08-19T15:59:12.241Z,12.68
2022-08-19T16:01:57.048Z,12.32
2022-08-19T16:04:42.358Z,12.23
2022-08-19T16:07:10.256Z,11.98
2022-08-19T16:09:36.686Z,12.02
2022-08-19T16:12:04.885Z,12.43
2022-08-19T16:14:38.174Z,12.38
2022-08-19T16:17:04.858Z,12.63
2022-08-19T16:19:32.430Z,12.50
2022-08-19T16:21:58.857Z,12.02
2022-08-19T16:24:26.668Z,13.45
2022-08-19T16:26:53.662Z,11.85
2022-08-19T16:29:33.886Z,11.45
2022-08-19T16:34:27.100Z,12.60
2022-08-19T16:36:54.114Z,12.40
2022-08-19T16:39:20.524Z,12.27
2022-08-19T16:41:48.417Z,11.95
2022-08-19T16:44:15.367Z,12.27
2022-08-19T16:46:41.770Z,12.75
2022-08-19T16:49:10.566Z,13.52
2022-08-19T16:51:37.566Z,12.13
2022-08-19T16:54:04.805Z,12.43
2022-08-19T16:56:31.269Z,13.75
2022-08-19T16:59:01.189Z,12.60
2022-08-19T17:01:28.394Z,12.07
2022-08-19T17:03:55.117Z,13.30
2022-08-19T17:06:28.701Z,13.65
2022-08-19T17:08:56.581Z,12.85
2022-08-19T17:11:24.328Z,12.73
2022-08-19T17:13:50.967Z,13.32
2022-08-19T17:16:18.645Z,12.95
2022-08-19T17:18:46.253Z,13.30
2022-08-19T17:21:13.239Z,14.30
2022-08-19T17:23:43.430Z,13.20
2022-08-19T17:28:42.862Z,15.25
2022-08-19T17:31:09.516Z,14.43
2022-08-19T17:33:35.899Z,14.15
2022-08-19T17:36:08.367Z,13.50
2022-08-19T17:38:35.883Z,12.60
2022-08-19T17:41:05.955Z,11.73
2022-08-19T17:43:40.083Z,11.32
2022-08-19T17:46:11.207Z,10.98
2022-08-19T17:48:42.313Z,9.85
2022-08-19T17:51:22.944Z,11.32
2022-08-19T17:53:50.813Z,11.35
2022-08-19T17:56:17.650Z,11.48
2022-08-19T17:58:44.158Z,11.27
2022-08-19T18:01:15.676Z,13.57
2022-08-19T18:03:44.006Z,14.05
2022-08-19T18:06:11.040Z,13.30
2022-08-19T18:08:40.570Z,14.00
2022-08-19T18:11:07.936Z,15.52
2022-08-19T18:13:35.017Z,16.35
2022-08-19T18:16:02.089Z,16.02
2022-08-19T18:18:28.465Z,16.27
2022-08-19T18:20:55.597Z,13.57
2022-08-19T18:23:44.450Z,12.23
2022-08-19T18:26:08.632Z,14.40
2022-08-19T18:28:35.118Z,13.93
2022-08-19T18:31:03.393Z,12.93
2022-08-19T18:33:29.788Z,11.88
2022-08-19T18:35:56.161Z,12.60
2022-08-19T18:38:41.335Z,12.93
2022-08-19T18:41:27.081Z,12.68
2022-08-19T18:44:11.850Z,14.65
2022-08-19T18:46:57.390Z,13.90
2022-08-19T18:49:28.642Z,14.07
2022-08-19T18:51:56.596Z,12.38
2022-08-19T18:54:23.786Z,12.60
2022-08-19T18:56:55.584Z,14.07
2022-08-19T18:59:23.076Z,12.30
2022-08-19T19:01:50.625Z,13.68
2022-08-19T19:04:18.044Z,13.23
2022-08-19T19:06:44.569Z,11.35
2022-08-19T19:09:13.776Z,12.00
2022-08-19T19:11:42.573Z,11.50
2022-08-19T19:14:27.432Z,10.93
2022-08-19T19:16:59.277Z,10.68
2022-08-19T19:19:26.496Z,10.68
2022-08-19T19:21:53.202Z,12.13
2022-08-19T19:24:24.233Z,12.00
2022-08-19T19:26:51.954Z,9.57
2022-08-19T19:29:19.529Z,10.98
2022-08-19T19:31:45.934Z,10.93
2022-08-19T19:34:15.502Z,10.60
2022-08-19T19:36:56.391Z,10.57
2022-08-19T19:39:45.227Z,11.90
2022-08-19T19:42:20.456Z,10.45
2022-08-19T19:44:48.918Z,11.20
2022-08-19T19:47:18.455Z,11.38
2022-08-19T19:50:13.934Z,10.63
2022-08-19T19:52:38.114Z,11.45
2022-08-19T19:55:04.702Z,11.15
2022-08-19T19:57:31.074Z,11.20
2022-08-19T19:59:58.225Z,11.10
2022-08-19T20:02:25.385Z,10.52
2022-08-19T20:04:52.328Z,9.60
2022-08-19T20:07:38.722Z,10.73
2022-08-19T20:10:05.373Z,10.60
2022-08-19T20:12:31.767Z,10.80
2022-08-19T20:14:58.210Z,10.20
2022-08-19T20:17:24.705Z,11.32
2022-08-19T20:19:51.153Z,10.98
2022-08-19T20:22:18.394Z,10.90
2022-08-19T20:24:44.862Z,10.45
2022-08-19T20:27:11.514Z,9.85
2022-08-19T20:29:41.471Z,11.00
2022-08-19T20:32:12.085Z,10.73
2022-08-19T20:34:41.496Z,12.05
2022-08-19T20:37:09.491Z,11.43
2022-08-19T20:39:36.238Z,10.88
2022-08-19T20:42:02.700Z,11.27
2022-08-19T20:44:29.172Z,11.27
2022-08-19T20:46:58.376Z,10.75
2022-08-19T20:49:28.289Z,11.00
2022-08-19T20:51:56.451Z,10.10
2022-08-19T20:54:24.143Z,9.82
2022-08-19T20:56:51.072Z,11.88
2022-08-19T20:59:17.762Z,11.43
2022-08-19T21:01:44.120Z,10.02
2022-08-19T21:04:10.501Z,10.38
2022-08-19T21:06:40.093Z,10.73
2022-08-19T21:09:08.873Z,10.75
2022-08-19T21:11:36.207Z,9.52
2022-08-19T21:14:02.916Z,10.60
2022-08-19T21:16:29.488Z,10.75
2022-08-19T21:18:55.897Z,10.25
2022-08-19T21:21:22.270Z,10.18
2022-08-19T21:23:49.691Z,10.35
2022-08-19T21:26:16.184Z,10.18
2022-08-19T21:28:42.661Z,10.85
2022-08-19T21:31:10.512Z,9.10
2022-08-19T21:33:37.720Z,10.30
2022-08-19T21:36:04.928Z,9.82
2022-08-19T21:38:31.535Z,10.32
2022-08-19T21:41:04.185Z,10.18
2022-08-19T21:43:32.760Z,8.70
2022-08-19T21:45:59.144Z,9.90
2022-08-19T21:48:25.605Z,9.18
2022-08-19T21:50:51.963Z,9.43
2022-08-19T21:53:18.623Z,9.27
2022-08-19T21:55:46.082Z,8.38
2022-08-19T21:58:19.593Z,8.80
2022-08-19T22:00:54.835Z,8.80
2022-08-19T22:03:22.002Z,8.88
2022-08-19T22:05:48.416Z,8.02
2022-08-19T22:08:15.267Z,8.93
2022-08-19T22:10:41.668Z,7.65
2022-08-19T22:13:09.527Z,7.82
2022-08-19T22:15:35.956Z,7.25
2022-08-19T22:18:02.733Z,7.93
2022-08-19T22:20:31.005Z,6.85
2022-08-19T22:22:59.268Z,7.30
2022-08-19T22:25:31.551Z,7.13
2022-08-19T22:28:00.495Z,7.30
2022-08-19T22:30:32.405Z,7.40
2022-08-19T22:33:01.321Z,6.78
2022-08-19T22:35:31.263Z,7.45
2022-08-19T22:37:58.884Z,7.00
2022-08-19T22:40:26.024Z,7.22
2022-08-19T22:43:04.346Z,6.80
2022-08-19T22:45:31.349Z,6.97
2022-08-19T22:47:58.035Z,7.35
2022-08-19T22:50:25.092Z,7.25
2022-08-19T22:52:58.537Z,7.22
2022-08-19T22:55:29.375Z,6.88
2022-08-19T23:00:23.484Z,6.72
2022-08-19T23:02:52.115Z,6.63
2022-08-19T23:05:21.899Z,7.05
2022-08-19T23:07:52.084Z,7.70
2022-08-19T23:10:26.676Z,7.22
2022-08-19T23:12:54.200Z,7.50
2022-08-19T23:15:26.268Z,8.07
2022-08-19T23:17:54.023Z,7.85
2022-08-19T23:20:20.928Z,8.05
2022-08-19T23:22:49.588Z,8.82
2022-08-19T23:25:17.775Z,7.57
2022-08-19T23:28:02.904Z,7.90
2022-08-19T23:30:30.050Z,7.45
2022-08-19T23:32:57.489Z,8.43
2022-08-19T23:35:24.387Z,7.63
2022-08-19T23:37:52.122Z,7.53
2022-08-19T23:40:21.651Z,7.43
2022-08-19T23:42:49.142Z,7.60
2022-08-19T23:45:15.910Z,7.80
2022-08-19T23:47:50.394Z,7.85
2022-08-19T23:50:16.895Z,7.57
2022-08-19T23:53:01.970Z,7.70
2022-08-19T23:55:31.702Z,7.10
2022-08-19T23:57:58.528Z,8.13
